Time;durP1;ratioP1;P1;durP2;ratioP2;P2;SDS_P1;SDS_P2;PMS_P1;PMS_P2;Temp;Humidity;BMP_temperature;BMP_pressure;BME280_temperature;BME280_humidity;BME280_pressure;Samples;Min_cycle;Max_cycle;Signal;HPM_P1;HPM_P2
2022/10/30 00:00:38;;;;;;;9.13;1.50;;;;;;;16.73;55.63;95261.28;5016779;28;20029;-91
2022/10/30 00:03:03;;;;;;;5.93;1.70;;;;;;;16.65;55.95;95262.72;4999584;28;20550;-88
2022/10/30 00:05:28;;;;;;;6.78;1.20;;;;;;;16.55;56.32;95263.59;4983629;28;20124;-91
2022/10/30 00:07:55;;;;;;;5.63;1.52;;;;;;;16.57;56.20;95261.47;5016818;28;20443;-92
2022/10/30 00:10:20;;;;;;;4.88;1.75;;;;;;;16.64;55.92;95258.47;4999223;28;20025;-91
2022/10/30 00:12:46;;;;;;;4.85;1.55;;;;;;;16.63;55.72;95252.41;4999323;28;20030;-91
2022/10/30 00:15:11;;;;;;;3.92;1.52;;;;;;;16.73;55.35;95251.47;5016451;28;20118;-91
2022/10/30 00:17:37;;;;;;;7.88;1.67;;;;;;;16.65;55.38;95260.06;4983265;28;20034;-91
2022/10/30 00:20:06;;;;;;;4.88;1.40;;;;;;;16.61;55.70;95253.75;5016529;28;20394;-91
2022/10/30 00:22:32;;;;;;;8.15;1.60;;;;;;;16.54;55.85;95249.59;5002531;28;20036;-90
2022/10/30 00:24:57;;;;;;;5.57;1.42;;;;;;;16.65;54.75;95250.25;4987021;28;20510;-91
2022/10/30 00:27:23;;;;;;;6.68;1.23;;;;;;;16.86;54.62;95252.66;5002807;28;20026;-90
2022/10/30 00:29:48;;;;;;;7.65;1.73;;;;;;;16.82;54.66;95247.13;4986996;28;20025;-91
2022/10/30 00:32:13;;;;;;;7.80;1.67;;;;;;;16.83;54.55;95250.56;4986913;28;20024;-91
2022/10/30 00:34:40;;;;;;;9.35;1.73;;;;;;;16.84;54.39;95246.06;4987027;28;20037;-91
2022/10/30 00:37:05;;;;;;;9.45;1.60;;;;;;;16.82;54.35;95249.78;5019953;28;20093;-91
2022/10/30 00:41:59;;;;;;;9.38;1.35;;;;;;;16.67;54.23;95239.41;5018980;28;20057;-93
2022/10/30 00:44:36;;;;;;;6.03;1.52;;;;;;;16.80;53.91;95241.34;5002809;28;20030;-93
2022/10/30 00:47:04;;;;;;;6.53;1.80;;;;;;;16.82;54.32;95241.84;5002855;28;20057;-93
2022/10/30 00:49:38;;;;;;;8.70;1.80;;;;;;;16.79;53.77;95239.78;5002622;28;20030;-93
2022/10/30 00:52:08;;;;;;;6.50;1.33;;;;;;;16.85;54.00;95240.47;5002776;28;20030;-93
2022/10/30 00:54:34;;;;;;;7.30;2.00;;;;;;;16.76;54.39;95242.97;5003010;28;20033;-92
2022/10/30 00:57:01;;;;;;;7.55;1.60;;;;;;;16.68;54.89;95243.63;5002660;28;20022;-93
2022/10/30 00:59:35;;;;;;;6.07;1.42;;;;;;;16.64;54.62;95238.09;5002858;28;20029;-92
2022/10/30 01:02:03;;;;;;;11.07;1.90;;;;;;;16.52;55.16;95243.81;5002644;28;20080;-93
2022/10/30 01:04:29;;;;;;;6.18;1.50;;;;;;;16.59;54.51;95234.72;5002713;28;20021;-92
2022/10/30 01:06:55;;;;;;;4.28;1.35;;;;;;;16.60;54.26;95234.44;5002866;28;20022;-92
2022/10/30 01:09:21;;;;;;;3.88;1.50;;;;;;;16.53;54.84;95236.63;5002507;28;20029;-92
2022/10/30 01:11:47;;;;;;;8.38;1.98;;;;;;;16.47;54.53;95235.91;5002454;28;20022;-92
2022/10/30 01:14:15;;;;;;;6.22;1.13;;;;;;;16.50;54.29;95230.09;5002714;28;20033;-92
2022/10/30 01:16:56;;;;;;;5.35;1.35;;;;;;;16.40;55.11;95230.19;5002342;28;20033;-94
2022/10/30 01:19:41;;;;;;;4.63;1.10;;;;;;;16.47;54.10;95232.50;5018405;28;20079;-92
2022/10/30 01:22:38;;;;;;;9.38;1.35;;;;;;;16.58;53.71;95230.50;5019419;28;20546;-93
2022/10/30 01:25:29;;;;;;;6.82;1.27;;;;;;;16.74;52.17;95229.22;5002066;28;20053;-92
2022/10/30 01:28:08;;;;;;;2.78;1.30;;;;;;;16.64;53.12;95226.72;5018343;28;20443;-93
2022/10/30 01:30:52;;;;;;;7.65;1.58;;;;;;;16.64;52.52;95218.78;5018514;28;20033;-91
2022/10/30 01:33:32;;;;;;;3.47;1.30;;;;;;;16.64;52.14;95221.41;5017482;28;20022;-92
2022/10/30 01:36:07;;;;;;;6.68;1.33;;;;;;;16.57;52.16;95215.72;5001850;28;20069;-93
2022/10/30 01:39:06;;;;;;;8.63;1.10;;;;;;;16.59;51.75;95219.66;5018289;28;20032;-92
2022/10/30 01:41:32;;;;;;;5.72;1.40;;;;;;;16.45;52.02;95210.84;5001779;28;20036;-91
2022/10/30 01:44:05;;;;;;;7.00;1.10;;;;;;;16.35;52.96;95211.72;5001743;28;20029;-92
2022/10/30 01:47:12;;;;;;;10.07;1.77;;;;;;;16.37;52.19;95213.03;5001803;28;20061;-92
2022/10/30 01:50:10;;;;;;;6.03;1.55;;;;;;;16.42;51.82;95211.38;5001647;28;20030;-92
2022/10/30 01:52:43;;;;;;;4.78;1.40;;;;;;;16.49;51.52;95209.97;5018037;28;20061;-92
2022/10/30 01:55:14;;;;;;;;;;;;;;;16.32;52.12;95204.38;5002091;28;20087;-94
2022/10/30 01:58:05;;;;;;;7.32;1.33;;;;;;;16.28;52.03;95204.13;5017798;28;19913;-92
2022/10/30 02:00:30;;;;;;;7.18;1.45;;;;;;;16.22;52.50;95206.06;5017902;28;20087;-92
2022/10/30 02:02:56;;;;;;;7.72;1.88;;;;;;;16.40;51.41;95209.03;5001385;28;20120;-92
2022/10/30 02:05:32;;;;;;;7.10;1.10;;;;;;;16.30;52.06;95203.88;5001362;28;20033;-92
2022/10/30 02:07:58;;;;;;;12.15;1.67;;;;;;;16.31;51.28;95202.78;5001265;28;20080;-93
2022/10/30 02:10:23;;;;;;;6.88;1.30;;;;;;;16.35;51.55;95204.59;5001242;28;20032;-92
2022/10/30 02:12:48;;;;;;;6.05;1.38;;;;;;;16.23;52.22;95194.44;5001181;28;20189;-92
2022/10/30 02:15:14;;;;;;;6.07;1.58;;;;;;;16.08;52.97;95189.31;5001079;28;20072;-92
2022/10/30 02:17:40;;;;;;;5.70;1.50;;;;;;;16.15;52.15;95195.03;5000836;28;20080;-93
2022/10/30 02:20:06;;;;;;;5.20;1.20;;;;;;;16.15;52.59;95191.63;5017133;28;20034;-93
2022/10/30 02:22:32;;;;;;;4.65;1.13;;;;;;;16.03;52.44;95189.38;5017334;28;20026;-93
2022/10/30 02:24:57;;;;;;;8.75;1.63;;;;;;;16.18;52.13;95181.25;5017235;28;20426;-92
2022/10/30 02:27:22;;;;;;;5.82;1.20;;;;;;;16.20;51.59;95189.69;5001124;28;20342;-92
2022/10/30 02:29:48;;;;;;;6.70;1.20;;;;;;;16.22;51.76;95182.28;5000944;28;20331;-92
2022/10/30 02:32:13;;;;;;;8.73;1.40;;;;;;;15.95;53.52;95190.78;5000966;28;20025;-92
2022/10/30 02:34:39;;;;;;;6.40;1.58;;;;;;;16.19;52.17;95185.47;5000914;28;20029;-92
2022/10/30 02:37:04;;;;;;;11.23;1.63;;;;;;;16.38;50.92;95182.88;5016972;28;20426;-92
2022/10/30 02:39:30;;;;;;;8.38;1.65;;;;;;;16.45;50.65;95176.47;5016959;28;20057;-92
2022/10/30 02:41:55;;;;;;;7.68;1.75;;;;;;;16.43;50.41;95179.38;5016757;28;20080;-92
2022/10/30 02:44:20;;;;;;;6.43;1.13;;;;;;;16.33;50.85;95179.50;5000567;28;20453;-92
2022/10/30 02:46:46;;;;;;;4.90;1.10;;;;;;;16.26;50.86;95179.84;5000592;28;20029;-92
2022/10/30 02:49:11;;;;;;;3.83;1.05;;;;;;;16.20;51.24;95175.69;5016699;28;20018;-92
2022/10/30 02:51:37;;;;;;;7.88;1.33;;;;;;;16.33;50.46;95176.84;5016751;28;20021;-92
2022/10/30 02:54:02;;;;;;;12.00;1.60;;;;;;;16.39;50.23;95178.38;5016602;28;20038;-92
2022/10/30 02:56:28;;;;;;;7.93;1.58;;;;;;;16.65;49.35;95172.75;5000341;28;20430;-92
2022/10/30 02:58:55;;;;;;;5.45;1.10;;;;;;;16.66;49.50;95172.44;5000393;28;20068;-92
2022/10/30 03:01:20;;;;;;;5.07;1.25;;;;;;;16.76;49.15;95176.03;5000728;28;20026;-93
2022/10/30 03:03:46;;;;;;;6.68;1.45;;;;;;;16.74;49.36;95171.03;5000080;28;20052;-93
2022/10/30 03:06:14;;;;;;;7.15;1.48;;;;;;;16.77;49.34;95178.38;5016551;28;20029;-93
2022/10/30 03:08:40;;;;;;;6.13;1.20;;;;;;;16.74;49.46;95181.59;5000297;28;20022;-92
2022/10/30 03:11:09;;;;;;;6.38;1.60;;;;;;;16.76;49.26;95173.38;5016384;28;20029;-93
2022/10/30 03:13:35;;;;;;;4.63;1.58;;;;;;;16.73;49.42;95180.03;5000239;28;20338;-92
2022/10/30 03:16:03;;;;;;;6.07;1.40;;;;;;;16.64;49.25;95174.59;5000196;28;20026;-93
2022/10/30 03:18:29;;;;;;;7.47;1.40;;;;;;;16.60;49.87;95180.75;4999922;28;20080;-92
2022/10/30 03:20:56;;;;;;;4.50;1.30;;;;;;;16.49;50.53;95185.38;5000043;28;20025;-92
2022/10/30 03:23:22;;;;;;;9.95;1.40;;;;;;;16.47;49.82;95183.00;5000022;28;20053;-91
2022/10/30 03:25:50;;;;;;;7.45;1.63;;;;;;;16.68;49.27;95177.47;5016118;28;20423;-92
2022/10/30 03:28:16;;;;;;;10.45;1.50;;;;;;;16.59;49.62;95177.31;5016333;28;20028;-93
2022/10/30 03:30:41;;;;;;;6.75;1.05;;;;;;;16.40;50.63;95182.59;5016162;28;20438;-92
2022/10/30 03:33:07;;;;;;;9.70;1.30;;;;;;;16.19;51.60;95177.53;4999824;28;20026;-91
2022/10/30 03:35:34;;;;;;;5.03;1.60;;;;;;;16.20;50.74;95180.97;5000076;28;20461;-92
2022/10/30 03:38:00;;;;;;;5.95;1.25;;;;;;;16.11;51.01;95180.81;5017073;28;20026;-91
2022/10/30 03:40:25;;;;;;;4.82;1.35;;;;;;;16.05;51.66;95169.53;5015930;28;20026;-93
2022/10/30 03:42:51;;;;;;;6.60;1.65;;;;;;;16.18;50.78;95175.97;5016269;28;20033;-91
2022/10/30 03:45:16;;;;;;;9.88;1.60;;;;;;;16.26;50.83;95179.84;4999827;28;20052;-92
2022/10/30 03:47:41;;;;;;;5.63;1.42;;;;;;;16.22;50.81;95174.34;4999781;28;20022;-92
2022/10/30 03:50:07;;;;;;;7.72;1.42;;;;;;;16.15;51.32;95181.81;4999894;28;20022;-92
2022/10/30 03:52:33;;;;;;;3.33;1.60;;;;;;;16.29;50.45;95176.66;4999716;28;20116;-91
2022/10/30 03:54:58;;;;;;;4.07;0.95;;;;;;;16.38;49.90;95182.88;4999594;28;20022;-92
2022/10/30 03:57:23;;;;;;;5.82;1.45;;;;;;;16.45;49.87;95187.81;5018375;28;20025;-91
2022/10/30 03:59:49;;;;;;;3.88;1.10;;;;;;;16.50;49.76;95184.31;5019910;28;20029;-91
2022/10/30 04:02:15;;;;;;;6.22;1.13;;;;;;;16.54;49.79;95193.25;5019821;28;20028;-93
2022/10/30 04:04:40;;;;;;;6.65;1.42;;;;;;;16.66;49.36;95187.56;5019601;28;20071;-91
2022/10/30 04:07:06;;;;;;;6.18;1.27;;;;;;;16.65;49.69;95188.63;5003388;28;20029;-91
2022/10/30 04:09:31;;;;;;;10.35;1.67;;;;;;;16.50;50.18;95185.13;5003118;28;20026;-92
2022/10/30 04:11:57;;;;;;;5.40;1.30;;;;;;;16.40;49.94;95185.25;5003250;28;20462;-92
2022/10/30 04:14:22;;;;;;;9.35;1.45;;;;;;;16.33;50.71;95188.22;5003350;28;20080;-92
2022/10/30 04:16:47;;;;;;;9.73;1.58;;;;;;;16.25;50.34;95183.56;5003165;28;20024;-92
2022/10/30 04:19:13;;;;;;;6.78;1.20;;;;;;;16.09;50.74;95186.38;5003145;28;20034;-92
2022/10/30 04:21:38;;;;;;;6.88;1.70;;;;;;;16.01;51.18;95191.50;5003164;28;20022;-92
2022/10/30 04:24:04;;;;;;;7.13;1.52;;;;;;;16.00;51.53;95190.72;5003192;28;20116;-92
2022/10/30 04:26:29;;;;;;;10.45;1.83;;;;;;;16.21;50.60;95183.34;5002976;28;20022;-91
2022/10/30 04:29:06;;;;;;;5.32;1.20;;;;;;;16.52;50.30;95192.75;5003191;28;20036;-92
2022/10/30 04:31:31;;;;;;;10.80;1.80;;;;;;;16.23;51.09;95186.50;5019455;28;20037;-92
2022/10/30 04:33:57;;;;;;;9.15;1.00;;;;;;;16.47;50.70;95193.59;5019203;28;20026;-92
2022/10/30 04:36:29;;;;;;;10.55;1.40;;;;;;;16.40;50.43;95190.53;5018989;28;20025;-92
2022/10/30 04:38:54;;;;;;;10.20;1.40;;;;;;;16.28;50.70;95188.28;5019567;28;20026;-91
2022/10/30 04:41:19;;;;;;;9.80;1.23;;;;;;;16.21;51.00;95183.34;5018871;28;20085;-91
2022/10/30 04:43:48;;;;;;;13.50;1.45;;;;;;;16.21;50.51;95177.25;5002831;28;20390;-92
2022/10/30 04:46:14;;;;;;;7.30;1.48;;;;;;;16.00;51.72;95182.81;5003072;28;20032;-92
2022/10/30 04:48:39;;;;;;;9.13;1.30;;;;;;;16.01;51.91;95178.28;5019946;28;20025;-92
2022/10/30 04:51:06;;;;;;;7.47;1.52;;;;;;;16.13;50.55;95180.53;5018760;28;20467;-92
2022/10/30 04:53:31;;;;;;;8.73;1.20;;;;;;;16.28;49.83;95176.94;5018789;28;20414;-93
2022/10/30 04:55:56;;;;;;;5.68;1.08;;;;;;;16.45;49.68;95181.75;5002668;28;20060;-91
2022/10/30 04:58:27;;;;;;;9.80;1.23;;;;;;;16.41;49.94;95173.59;5018725;28;20026;-91
2022/10/30 05:00:52;;;;;;;7.18;1.23;;;;;;;16.42;49.65;95169.06;5018677;28;20036;-90
2022/10/30 05:03:21;;;;;;;6.65;1.48;;;;;;;16.37;51.86;95180.53;5002438;28;20025;-92
2022/10/30 05:06:00;;;;;;;6.47;1.00;;;;;;;16.15;51.47;95173.13;5018942;28;20117;-92
2022/10/30 05:08:26;;;;;;;8.98;1.48;;;;;;;15.94;52.06;95175.97;5017310;28;20026;-93
2022/10/30 05:10:52;;;;;;;8.32;1.48;;;;;;;15.85;51.55;95175.78;5018470;28;20037;-92
2022/10/30 05:13:18;;;;;;;7.78;1.20;;;;;;;15.91;50.85;95174.69;5002290;28;20029;-92
2022/10/30 05:15:43;;;;;;;5.07;1.40;;;;;;;15.82;51.81;95179.00;5018519;28;20029;-91
2022/10/30 05:18:09;;;;;;;9.05;1.52;;;;;;;16.03;50.54;95171.66;5018354;28;20029;-92
2022/10/30 05:20:35;;;;;;;4.80;1.30;;;;;;;16.11;51.26;95168.38;5019434;28;20061;-92
2022/10/30 05:23:00;;;;;;;14.68;2.05;;;;;;;16.00;51.07;95166.16;5019387;28;20037;-92
2022/10/30 05:25:27;;;;;;;6.85;1.40;;;;;;;16.07;52.08;95167.38;5018238;28;20057;-92
2022/10/30 05:27:59;;;;;;;6.00;1.17;;;;;;;16.13;51.12;95170.75;5002000;28;20033;-91
2022/10/30 05:30:26;;;;;;;9.48;1.80;;;;;;;16.12;51.76;95169.19;5001764;28;20469;-92
2022/10/30 05:32:57;;;;;;;7.40;1.15;;;;;;;16.20;51.10;95168.53;5002019;28;20030;-93
2022/10/30 05:35:23;;;;;;;6.32;1.50;;;;;;;16.35;50.37;95166.78;5018986;28;20052;-93
2022/10/30 05:37:48;;;;;;;5.88;1.23;;;;;;;16.59;49.55;95165.94;5017942;28;20022;-93
2022/10/30 05:40:14;;;;;;;4.75;1.60;;;;;;;16.79;49.30;95167.53;5018012;28;20034;-93
2022/10/30 05:42:47;;;;;;;12.23;1.73;;;;;;;16.96;49.02;95172.31;5019467;28;20076;-92
2022/10/30 05:45:12;;;;;;;14.15;1.85;;;;;;;16.99;48.85;95169.13;5017885;28;20373;-92
2022/10/30 05:47:38;;;;;;;10.60;1.83;;;;;;;17.11;48.48;95171.31;5018198;28;20032;-92
2022/10/30 05:50:04;;;;;;;11.20;1.52;;;;;;;16.95;49.54;95168.09;5001669;28;20033;-92
2022/10/30 05:52:30;;;;;;;5.72;1.25;;;;;;;16.84;49.81;95167.44;5001710;28;20029;-92
2022/10/30 05:54:55;;;;;;;6.30;1.70;;;;;;;16.41;51.41;95160.38;5017765;28;20512;-92
2022/10/30 05:57:21;;;;;;;12.38;2.17;;;;;;;16.39;51.31;95171.22;5001115;28;20064;-92
2022/10/30 05:59:46;;;;;;;7.40;1.42;;;;;;;16.49;51.00;95174.81;5017531;28;20092;-92
2022/10/30 06:02:12;;;;;;;7.35;1.58;;;;;;;16.49;50.84;95169.53;5017418;28;20034;-92
2022/10/30 06:04:37;;;;;;;8.18;1.30;;;;;;;16.45;51.43;95173.81;5001266;28;20026;-92
2022/10/30 06:07:03;;;;;;;11.20;1.30;;;;;;;16.39;51.68;95178.38;5017198;28;20030;-92
2022/10/30 06:09:28;;;;;;;8.13;1.45;;;;;;;16.28;52.46;95176.94;5001109;28;20060;-92
2022/10/30 06:11:54;;;;;;;9.07;1.25;;;;;;;16.18;54.08;95172.56;5001080;28;20116;-93
2022/10/30 06:14:20;;;;;;;10.88;1.67;;;;;;;16.17;54.31;95181.56;5017378;28;20077;-92
2022/10/30 06:16:46;;;;;;;8.98;1.52;;;;;;;16.23;53.58;95175.13;5001267;28;20075;-91
2022/10/30 06:19:12;;;;;;;7.18;1.35;;;;;;;16.19;55.22;95180.19;5016865;28;20033;-92
2022/10/30 06:21:37;;;;;;;4.03;1.65;;;;;;;16.29;54.87;95184.59;5001120;28;20037;-92
2022/10/30 06:24:03;;;;;;;8.20;1.60;;;;;;;16.45;54.04;95182.53;5000943;28;20033;-92
2022/10/30 06:26:28;;;;;;;7.35;1.33;;;;;;;16.62;54.03;95179.41;5017102;28;20439;-92
2022/10/30 06:32:26;;;;;;;6.43;1.35;;;;;;;16.99;54.21;95187.63;5018115;28;20080;-93
2022/10/30 06:34:51;;;;;;;6.20;1.70;;;;;;;17.07;54.56;95188.84;5017285;28;20497;-93
2022/10/30 06:37:17;;;;;;;6.72;1.48;;;;;;;17.14;55.96;95191.13;5017102;28;20025;-92
2022/10/30 06:39:42;;;;;;;6.10;1.38;;;;;;;17.16;55.71;95188.97;5016573;28;20128;-93
2022/10/30 06:42:08;;;;;;;7.50;1.15;;;;;;;17.08;55.40;95185.94;5000621;28;20037;-91
2022/10/30 06:44:33;;;;;;;10.32;1.45;;;;;;;17.09;56.09;95195.44;5000621;28;20327;-91
2022/10/30 06:46:59;;;;;;;5.22;0.82;;;;;;;17.06;56.61;95184.63;5016860;28;20030;-92
2022/10/30 06:49:24;;;;;;;7.30;1.42;;;;;;;17.12;56.81;95199.34;5000482;28;20037;-91
2022/10/30 06:51:50;;;;;;;6.63;1.38;;;;;;;17.20;56.90;95196.06;5016603;28;20034;-92
2022/10/30 06:54:15;;;;;;;7.72;1.30;;;;;;;17.29;56.72;95196.19;4998587;28;20087;-92
2022/10/30 06:56:42;;;;;;;8.48;1.25;;;;;;;17.34;56.59;95193.44;4997483;28;20054;-92
2022/10/30 06:59:08;;;;;;;5.78;1.27;;;;;;;17.54;56.86;95194.19;4997045;28;20040;-92
2022/10/30 07:01:34;;;;;;;5.68;1.75;;;;;;;17.63;58.63;95197.72;4996346;28;20030;-92
2022/10/30 07:03:59;;;;;;;7.32;1.52;;;;;;;17.79;57.91;95195.63;5003537;28;20456;-91
2022/10/30 07:06:25;;;;;;;9.75;1.70;;;;;;;17.75;56.96;95201.78;5035820;28;20029;-91
2022/10/30 07:08:50;;;;;;;6.43;1.83;;;;;;;17.78;57.69;95203.84;5019543;28;20342;-92
2022/10/30 07:11:16;;;;;;;14.15;2.15;;;;;;;17.82;60.43;95207.50;5015826;28;20101;-91
2022/10/30 07:13:41;;;;;;;7.57;1.02;;;;;;;17.94;60.49;95202.50;5035890;28;20041;-91
2022/10/30 07:16:07;;;;;;;11.00;1.30;;;;;;;18.06;57.70;95204.69;5035805;28;20100;-91
2022/10/30 07:18:32;;;;;;;8.80;1.48;;;;;;;18.15;57.10;95202.16;5019166;28;20033;-91
2022/10/30 07:20:57;;;;;;;8.02;1.48;;;;;;;18.25;56.90;95200.38;5035417;28;20033;-91
2022/10/30 07:23:23;;;;;;;5.72;1.13;;;;;;;18.27;57.89;95204.28;5019372;28;20037;-91
2022/10/30 07:25:49;;;;;;;5.47;1.38;;;;;;;18.34;60.01;95202.03;5019431;28;20034;-91
2022/10/30 07:28:14;;;;;;;5.25;1.33;;;;;;;18.40;62.16;95204.59;5019620;28;20038;-93
2022/10/30 07:30:39;;;;;;;8.02;1.50;;;;;;;18.45;60.57;95207.16;5016707;28;20116;-92
2022/10/30 07:33:06;;;;;;;8.93;1.50;;;;;;;18.52;61.05;95207.53;4999938;28;20033;-93
2022/10/30 07:35:34;;;;;;;5.65;1.65;;;;;;;18.55;63.77;95208.81;4999838;28;20041;-94
2022/10/30 07:38:04;;;;;;;7.72;1.83;;;;;;;18.65;66.61;95208.59;5016178;28;20088;-92
2022/10/30 07:40:29;;;;;;;11.23;1.58;;;;;;;18.56;63.49;95213.03;5000080;28;20033;-93
2022/10/30 07:42:56;;;;;;;9.68;2.03;;;;;;;18.61;59.64;95213.72;5000043;28;20034;-94
2022/10/30 07:45:21;;;;;;;7.97;1.80;;;;;;;18.68;59.28;95210.66;5000093;28;20120;-94
2022/10/30 07:47:47;;;;;;;5.47;1.38;;;;;;;18.75;58.33;95218.97;5000182;28;20157;-93
2022/10/30 07:50:12;;;;;;;9.23;1.33;;;;;;;18.72;57.06;95210.81;5000199;28;20038;-94
2022/10/30 07:52:38;;;;;;;9.80;1.40;;;;;;;18.85;58.08;95212.66;5016166;28;20105;-93
2022/10/30 07:55:04;;;;;;;6.80;1.27;;;;;;;18.95;57.84;95222.28;5000233;28;20033;-93
2022/10/30 07:57:33;;;;;;;8.70;1.45;;;;;;;19.02;58.17;95216.59;5015970;28;20041;-93
2022/10/30 07:59:59;;;;;;;8.07;1.83;;;;;;;19.12;58.25;95224.31;5000030;28;20399;-94
2022/10/30 08:02:24;;;;;;;5.93;1.48;;;;;;;19.17;57.56;95223.41;4999968;28;20168;-93
2022/10/30 08:04:50;;;;;;;9.95;1.92;;;;;;;19.26;57.30;95226.13;5000066;28;20128;-93
2022/10/30 08:07:15;;;;;;;6.63;1.80;;;;;;;19.33;59.94;95223.84;4999712;28;20168;-93
2022/10/30 08:09:41;;;;;;;12.00;1.85;;;;;;;19.47;58.87;95226.44;4999703;28;20034;-93
2022/10/30 08:12:06;;;;;;;6.28;1.45;;;;;;;19.44;61.01;95227.84;4999929;28;20057;-93
2022/10/30 08:14:33;;;;;;;7.60;1.73;;;;;;;19.59;60.85;95225.91;4999724;28;20037;-93
2022/10/30 08:16:59;;;;;;;8.90;1.50;;;;;;;19.67;60.57;95229.69;5015856;28;20026;-93
2022/10/30 08:19:24;;;;;;;7.45;1.80;;;;;;;19.74;62.59;95224.72;4999765;28;20350;-93
2022/10/30 08:21:50;;;;;;;13.82;1.80;;;;;;;19.88;61.84;95217.44;4999807;28;20041;-93
2022/10/30 08:24:15;;;;;;;5.97;1.40;;;;;;;19.92;63.09;95222.97;4999722;28;20034;-93
2022/10/30 08:26:40;;;;;;;8.93;1.50;;;;;;;19.91;63.83;95214.16;4999686;28;20443;-93
2022/10/30 08:29:06;;;;;;;9.82;1.40;;;;;;;19.99;63.54;95220.66;4999750;28;20061;-93
2022/10/30 08:31:31;;;;;;;15.13;2.00;;;;;;;20.09;60.15;95216.16;4999874;28;20041;-94
2022/10/30 08:33:57;;;;;;;10.98;1.70;;;;;;;20.09;61.07;95211.63;4999555;28;20453;-93
2022/10/30 08:36:22;;;;;;;9.38;1.73;;;;;;;20.17;60.26;95216.19;5015712;28;20084;-93
2022/10/30 08:38:48;;;;;;;8.02;1.55;;;;;;;20.28;60.18;95215.91;4999485;28;20040;-93
2022/10/30 08:41:13;;;;;;;9.32;1.60;;;;;;;20.36;59.11;95212.47;5015909;28;20092;-93
2022/10/30 08:43:39;;;;;;;6.18;1.48;;;;;;;20.39;59.07;95216.41;5018287;28;20358;-93
2022/10/30 08:46:04;;;;;;;11.18;1.80;;;;;;;20.46;58.28;95214.09;5002989;28;20041;-94
2022/10/30 08:48:29;;;;;;;5.57;1.38;;;;;;;20.38;59.54;95212.19;5019480;28;20057;-93
2022/10/30 08:51:00;;;;;;;8.30;1.20;;;;;;;20.49;57.90;95213.47;5018959;28;20030;-94
2022/10/30 08:53:25;;;;;;;11.13;1.30;;;;;;;20.47;56.70;95223.66;5019092;28;20033;-93
2022/10/30 08:55:51;;;;;;;7.90;1.83;;;;;;;20.33;56.14;95211.25;5002998;28;20430;-93
2022/10/30 08:58:16;;;;;;;11.02;1.88;;;;;;;20.43;57.98;95215.50;5018784;28;20430;-93
2022/10/30 09:00:41;;;;;;;15.18;1.75;;;;;;;20.61;56.69;95218.97;5002823;28;20351;-93
2022/10/30 09:03:07;;;;;;;5.38;1.40;;;;;;;20.73;55.67;95207.72;5002669;28;20041;-93
2022/10/30 09:05:32;;;;;;;6.47;1.38;;;;;;;20.92;54.33;95208.56;5002562;28;20137;-93
2022/10/30 09:07:59;;;;;;;4.13;1.23;;;;;;;21.05;53.21;95213.72;5002607;28;20030;-92
2022/10/30 09:10:26;;;;;;;10.52;1.63;;;;;;;21.23;53.07;95210.25;5019082;28;20030;-93
2022/10/30 09:12:56;;;;;;;4.25;1.10;;;;;;;21.38;52.33;95206.34;5002659;28;20034;-93
2022/10/30 09:15:22;;;;;;;5.65;1.70;;;;;;;21.47;50.76;95207.09;5002336;28;20121;-93
2022/10/30 09:17:47;;;;;;;7.35;1.30;;;;;;;21.57;49.94;95206.78;5002468;28;20052;-93
2022/10/30 09:20:13;;;;;;;6.88;1.60;;;;;;;21.65;49.72;95207.84;5018086;28;20124;-94
2022/10/30 09:22:42;;;;;;;4.35;1.48;;;;;;;21.75;46.92;95198.75;5001728;28;20084;-93
2022/10/30 09:25:08;;;;;;;3.15;1.10;;;;;;;21.75;48.19;95204.88;5002385;28;20092;-93
2022/10/30 09:27:39;;;;;;;6.68;1.23;;;;;;;21.84;51.31;95204.84;5018271;28;20374;-93
2022/10/30 09:30:05;;;;;;;6.35;1.50;;;;;;;21.95;50.93;95210.63;5000468;28;20040;-94
2022/10/30 09:32:31;;;;;;;5.88;1.10;;;;;;;21.92;49.07;95203.25;5018146;28;20076;-93
2022/10/30 09:34:57;;;;;;;7.85;1.20;;;;;;;22.02;48.65;95205.56;5017850;28;20048;-95
2022/10/30 09:37:23;;;;;;;11.63;1.70;;;;;;;22.08;46.83;95198.16;5001616;28;20042;-93
2022/10/30 09:39:48;;;;;;;5.97;1.08;;;;;;;22.19;49.71;95198.59;5001955;28;20037;-93
2022/10/30 09:42:53;;;;;;;5.90;1.40;;;;;;;22.27;45.38;95203.09;5001676;28;20030;-92
2022/10/30 09:45:18;;;;;;;10.90;1.90;;;;;;;22.16;47.58;95204.56;4923970;29;20039;-94
2022/10/30 09:48:14;;;;;;;9.50;1.40;;;;;;;22.35;47.33;95209.50;4924167;29;20079;-93
2022/10/30 09:51:11;;;;;;;9.45;1.55;;;;;;;22.58;47.26;95209.25;4985903;28;20042;-94
2022/10/30 09:54:35;;;;;;;5.82;1.20;;;;;;;22.62;47.27;95204.81;5017520;28;20065;-94
2022/10/30 09:57:08;;;;;;;7.25;1.63;;;;;;;22.73;47.72;95206.00;4908429;29;20091;-92
2022/10/30 10:03:15;;;;;;;12.23;1.85;;;;;;;22.95;45.83;95198.75;4939457;29;20126;-92
2022/10/30 10:09:07;;;;;;;8.70;1.80;;;;;;;23.18;44.96;95198.44;4939361;29;20472;-93
2022/10/30 10:11:36;;;;;;;7.95;1.95;;;;;;;23.28;44.50;95191.94;4923790;29;20187;-92
2022/10/30 10:14:26;;;;;;;4.85;1.27;;;;;;;23.30;44.87;95203.06;4948035;28;20132;-93
2022/10/30 10:16:54;;;;;;;5.47;1.50;;;;;;;23.39;44.32;95190.41;5018286;28;20033;-92
2022/10/30 10:19:27;;;;;;;6.43;1.90;;;;;;;23.45;44.33;95193.66;5001233;28;20057;-93
2022/10/30 10:21:58;;;;;;;5.13;1.20;;;;;;;23.62;44.02;95191.91;5001182;28;20034;-93
2022/10/30 10:24:34;;;;;;;4.97;1.42;;;;;;;23.70;43.99;95193.75;5001161;28;20045;-93
2022/10/30 10:27:03;;;;;;;8.65;1.70;;;;;;;23.73;44.09;95190.38;5017271;28;20093;-94
2022/10/30 10:29:45;;;;;;;4.00;1.05;;;;;;;23.73;43.84;95182.38;5017138;28;20040;-93
2022/10/30 10:32:26;;;;;;;6.35;1.73;;;;;;;23.80;43.42;95181.81;5000847;28;20132;-92
2022/10/30 10:35:07;;;;;;;5.40;1.10;;;;;;;23.82;43.02;95192.97;5017360;28;20087;-93
2022/10/30 10:37:47;;;;;;;4.13;1.25;;;;;;;23.89;43.59;95189.75;5000920;28;20041;-94
2022/10/30 10:40:35;;;;;;;4.88;1.05;;;;;;;23.96;42.98;95181.97;5017170;28;20037;-94
2022/10/30 10:43:04;;;;;;;12.40;1.95;;;;;;;23.97;43.58;95178.94;5018216;28;20076;-93
2022/10/30 10:46:00;;;;;;;5.72;1.30;;;;;;;24.04;41.19;95180.31;5017191;28;20030;-94
2022/10/30 10:48:44;;;;;;;7.13;1.20;;;;;;;24.14;42.12;95177.97;5017433;28;20026;-93
2022/10/30 10:51:15;;;;;;;6.45;1.10;;;;;;;24.27;42.12;95178.75;5018107;28;20061;-94
2022/10/30 10:53:54;;;;;;;6.10;1.13;;;;;;;24.29;41.44;95170.38;5017058;28;20026;-94
2022/10/30 10:56:21;;;;;;;6.93;1.33;;;;;;;24.32;40.06;95175.06;5000576;28;20040;-93
2022/10/30 10:59:27;;;;;;;9.93;1.52;;;;;;;24.51;40.98;95169.13;5000531;28;20040;-93
2022/10/30 11:02:27;;;;;;;10.30;1.77;;;;;;;24.60;40.48;95169.00;4999738;28;20111;-92
2022/10/30 11:04:54;;;;;;;8.30;0.95;;;;;;;24.57;39.35;95165.09;5000504;28;20060;-92
2022/10/30 11:07:22;;;;;;;7.22;1.10;;;;;;;24.59;39.47;95170.13;5000379;28;20550;-93
2022/10/30 11:09:52;;;;;;;10.18;1.35;;;;;;;24.64;38.98;95164.53;5000230;28;20041;-93
2022/10/30 11:12:30;;;;;;;6.20;1.10;;;;;;;24.74;37.56;95159.81;5000198;28;20029;-93
2022/10/30 11:14:57;;;;;;;7.07;0.98;;;;;;;24.81;38.36;95149.31;5000184;28;20030;-91
2022/10/30 11:17:31;;;;;;;6.35;1.13;;;;;;;24.96;38.78;95145.16;5000067;28;20069;-92
2022/10/30 11:20:15;;;;;;;3.83;0.95;;;;;;;25.01;36.68;95136.84;5000015;28;20036;-92
2022/10/30 11:22:44;;;;;;;1.27;0.60;;;;;;;25.09;36.92;95140.50;5016226;28;20037;-93
2022/10/30 11:25:21;;;;;;;3.03;1.15;;;;;;;25.17;36.75;95144.94;5016421;28;20091;-94
2022/10/30 11:27:54;;;;;;;11.88;1.25;;;;;;;25.08;35.79;95141.63;5000206;28;20434;-93
2022/10/30 11:30:22;;;;;;;9.40;1.45;;;;;;;25.14;35.67;95142.97;4999635;28;20032;-93
2022/10/30 11:32:49;;;;;;;4.90;1.08;;;;;;;25.13;35.63;95141.41;4999780;28;20320;-92
2022/10/30 11:35:16;;;;;;;2.70;1.08;;;;;;;25.27;35.75;95139.09;4999906;28;20431;-93
2022/10/30 11:37:43;;;;;;;9.32;1.40;;;;;;;25.44;35.51;95139.91;5015855;28;20137;-93
2022/10/30 11:40:12;;;;;;;7.70;1.52;;;;;;;25.47;35.97;95133.84;4999647;28;20391;-93
2022/10/30 11:42:53;;;;;;;4.97;1.23;;;;;;;25.42;35.19;95134.88;5016180;28;20124;-92
2022/10/30 11:45:23;;;;;;;4.70;1.80;;;;;;;25.44;35.60;95134.53;5016099;28;20038;-94
2022/10/30 11:47:49;;;;;;;4.65;1.77;;;;;;;25.48;36.37;95124.69;5016067;28;20053;-93
2022/10/30 11:50:22;;;;;;;6.43;1.75;;;;;;;25.76;36.82;95126.53;5000045;28;20439;-92
2022/10/30 11:52:54;;;;;;;6.18;1.70;;;;;;;25.65;36.09;95120.91;5015975;28;20044;-92